sensor_id;sensor_type;location;lat;lon;timestamp;pressure;altitude;pressure_sealevel;temperature;humidity
51460;BME280;37534;39.772;2.718;2023-07-22T00:00:43;101140.66;;;27.98;100.00
51460;BME280;37534;39.772;2.718;2023-07-22T00:03:08;101153.50;;;28.02;100.00
51460;BME280;37534;39.772;2.718;2023-07-22T00:05:34;101145.69;;;28.01;100.00
51460;BME280;37534;39.772;2.718;2023-07-22T00:07:59;101148.22;;;28.02;100.00
51460;BME280;37534;39.772;2.718;2023-07-22T00:10:25;101149.63;;;27.97;100.00
51460;BME280;37534;39.772;2.718;2023-07-22T00:12:50;101152.28;;;27.97;100.00
51460;BME280;37534;39.772;2.718;2023-07-22T00:15:16;101149.03;;;28.03;100.00
51460;BME280;37534;39.772;2.718;2023-07-22T00:17:42;101159.53;;;27.95;100.00
51460;BME280;37534;39.772;2.718;2023-07-22T00:20:09;101156.91;;;27.95;100.00
51460;BME280;37534;39.772;2.718;2023-07-22T00:22:38;101162.19;;;27.95;100.00
51460;BME280;37534;39.772;2.718;2023-07-22T00:25:10;101163.72;;;27.87;100.00
51460;BME280;37534;39.772;2.718;2023-07-22T00:27:37;101167.31;;;27.86;100.00
51460;BME280;37534;39.772;2.718;2023-07-22T00:30:04;101163.16;;;27.74;100.00
51460;BME280;37534;39.772;2.718;2023-07-22T00:32:30;101151.56;;;27.65;100.00
51460;BME280;37534;39.772;2.718;2023-07-22T00:34:56;101163.31;;;27.63;100.00
51460;BME280;37534;39.772;2.718;2023-07-22T00:37:22;101158.97;;;27.62;100.00
51460;BME280;37534;39.772;2.718;2023-07-22T00:39:47;101162.03;;;27.67;100.00
51460;BME280;37534;39.772;2.718;2023-07-22T00:42:13;101165.81;;;27.74;100.00
51460;BME280;37534;39.772;2.718;2023-07-22T00:44:38;101168.03;;;27.69;100.00
51460;BME280;37534;39.772;2.718;2023-07-22T00:47:04;101179.63;;;27.68;100.00
51460;BME280;37534;39.772;2.718;2023-07-22T00:49:30;101184.38;;;27.64;100.00
51460;BME280;37534;39.772;2.718;2023-07-22T00:52:01;101190.50;;;27.65;100.00
51460;BME280;37534;39.772;2.718;2023-07-22T00:54:30;101194.28;;;27.53;100.00
51460;BME280;37534;39.772;2.718;2023-07-22T00:56:56;101201.81;;;27.47;100.00
51460;BME280;37534;39.772;2.718;2023-07-22T00:59:24;101205.16;;;27.40;100.00
51460;BME280;37534;39.772;2.718;2023-07-22T01:01:50;101193.25;;;27.34;100.00
51460;BME280;37534;39.772;2.718;2023-07-22T01:04:19;101163.16;;;27.35;100.00
51460;BME280;37534;39.772;2.718;2023-07-22T01:06:45;101143.22;;;27.31;100.00
51460;BME280;37534;39.772;2.718;2023-07-22T01:09:12;101156.03;;;27.26;100.00
51460;BME280;37534;39.772;2.718;2023-07-22T01:11:38;101169.09;;;27.18;100.00
51460;BME280;37534;39.772;2.718;2023-07-22T01:14:04;101154.72;;;27.10;100.00
51460;BME280;37534;39.772;2.718;2023-07-22T01:16:30;101149.88;;;27.06;100.00
51460;BME280;37534;39.772;2.718;2023-07-22T01:18:56;101135.38;;;27.10;100.00
51460;BME280;37534;39.772;2.718;2023-07-22T01:21:25;101120.00;;;27.04;100.00
51460;BME280;37534;39.772;2.718;2023-07-22T01:23:52;101141.75;;;27.07;100.00
51460;BME280;37534;39.772;2.718;2023-07-22T01:26:19;101131.56;;;26.93;100.00
51460;BME280;37534;39.772;2.718;2023-07-22T01:28:44;101130.03;;;26.90;100.00
51460;BME280;37534;39.772;2.718;2023-07-22T01:31:10;101124.75;;;26.90;100.00
51460;BME280;37534;39.772;2.718;2023-07-22T01:33:36;101098.25;;;26.90;100.00
51460;BME280;37534;39.772;2.718;2023-07-22T01:36:03;101082.38;;;26.90;100.00
51460;BME280;37534;39.772;2.718;2023-07-22T01:38:29;101071.78;;;26.90;100.00
51460;BME280;37534;39.772;2.718;2023-07-22T01:40:54;101105.09;;;26.93;100.00
51460;BME280;37534;39.772;2.718;2023-07-22T01:43:20;101091.16;;;26.91;100.00
51460;BME280;37534;39.772;2.718;2023-07-22T01:45:46;101117.19;;;26.86;100.00
51460;BME280;37534;39.772;2.718;2023-07-22T01:48:12;101128.91;;;26.93;100.00
51460;BME280;37534;39.772;2.718;2023-07-22T01:50:37;101134.78;;;26.87;100.00
51460;BME280;37534;39.772;2.718;2023-07-22T01:53:03;101156.25;;;26.93;100.00
51460;BME280;37534;39.772;2.718;2023-07-22T01:55:30;101160.84;;;27.01;100.00
51460;BME280;37534;39.772;2.718;2023-07-22T01:57:57;101167.44;;;27.17;100.00
51460;BME280;37534;39.772;2.718;2023-07-22T02:00:23;101164.22;;;27.23;100.00
51460;BME280;37534;39.772;2.718;2023-07-22T02:02:48;101166.75;;;27.24;100.00
51460;BME280;37534;39.772;2.718;2023-07-22T02:05:15;101135.09;;;27.23;100.00
51460;BME280;37534;39.772;2.718;2023-07-22T02:07:40;101122.00;;;27.11;100.00
51460;BME280;37534;39.772;2.718;2023-07-22T02:10:06;101119.22;;;27.13;100.00
51460;BME280;37534;39.772;2.718;2023-07-22T02:12:32;101118.91;;;27.16;100.00
51460;BME280;37534;39.772;2.718;2023-07-22T02:14:57;101115.84;;;27.11;100.00
51460;BME280;37534;39.772;2.718;2023-07-22T02:17:23;101098.00;;;26.93;100.00
51460;BME280;37534;39.772;2.718;2023-07-22T02:19:49;101114.44;;;27.07;100.00
51460;BME280;37534;39.772;2.718;2023-07-22T02:22:15;101103.56;;;27.00;100.00
51460;BME280;37534;39.772;2.718;2023-07-22T02:24:40;101119.19;;;27.03;100.00
51460;BME280;37534;39.772;2.718;2023-07-22T02:27:06;101082.78;;;26.86;100.00
51460;BME280;37534;39.772;2.718;2023-07-22T02:29:34;101082.38;;;27.00;100.00
51460;BME280;37534;39.772;2.718;2023-07-22T02:31:59;101084.75;;;27.03;100.00
51460;BME280;37534;39.772;2.718;2023-07-22T02:34:25;101071.53;;;26.93;100.00
51460;BME280;37534;39.772;2.718;2023-07-22T02:36:50;101062.03;;;26.91;100.00
51460;BME280;37534;39.772;2.718;2023-07-22T02:39:16;101054.91;;;26.82;100.00
51460;BME280;37534;39.772;2.718;2023-07-22T02:41:41;101055.31;;;26.67;100.00
51460;BME280;37534;39.772;2.718;2023-07-22T02:44:07;101039.31;;;26.69;100.00
51460;BME280;37534;39.772;2.718;2023-07-22T02:46:33;101030.34;;;26.60;100.00
51460;BME280;37534;39.772;2.718;2023-07-22T02:48:59;101018.06;;;26.49;100.00
51460;BME280;37534;39.772;2.718;2023-07-22T02:51:24;101009.00;;;26.42;100.00
51460;BME280;37534;39.772;2.718;2023-07-22T02:53:50;101016.53;;;26.47;100.00
51460;BME280;37534;39.772;2.718;2023-07-22T02:56:15;101016.56;;;26.56;100.00
51460;BME280;37534;39.772;2.718;2023-07-22T02:58:41;101016.31;;;26.69;100.00
51460;BME280;37534;39.772;2.718;2023-07-22T03:01:07;101018.53;;;26.64;100.00
51460;BME280;37534;39.772;2.718;2023-07-22T03:03:34;101016.88;;;26.73;100.00
51460;BME280;37534;39.772;2.718;2023-07-22T03:06:01;101029.16;;;26.84;100.00
51460;BME280;37534;39.772;2.718;2023-07-22T03:08:27;101038.44;;;26.68;100.00
51460;BME280;37534;39.772;2.718;2023-07-22T03:10:53;101052.47;;;26.59;100.00
51460;BME280;37534;39.772;2.718;2023-07-22T03:13:18;101054.41;;;26.47;100.00
51460;BME280;37534;39.772;2.718;2023-07-22T03:15:44;101060.78;;;26.45;100.00
51460;BME280;37534;39.772;2.718;2023-07-22T03:18:10;101062.44;;;26.36;100.00
51460;BME280;37534;39.772;2.718;2023-07-22T03:20:36;101081.53;;;26.40;100.00
51460;BME280;37534;39.772;2.718;2023-07-22T03:23:03;101084.03;;;26.31;100.00
51460;BME280;37534;39.772;2.718;2023-07-22T03:25:29;101088.88;;;26.36;100.00
51460;BME280;37534;39.772;2.718;2023-07-22T03:27:55;101095.03;;;26.36;100.00
51460;BME280;37534;39.772;2.718;2023-07-22T03:30:21;101087.38;;;26.33;100.00
51460;BME280;37534;39.772;2.718;2023-07-22T03:32:48;101084.72;;;26.33;100.00
51460;BME280;37534;39.772;2.718;2023-07-22T03:35:16;101081.75;;;26.27;100.00
51460;BME280;37534;39.772;2.718;2023-07-22T03:37:42;101078.09;;;26.18;100.00
51460;BME280;37534;39.772;2.718;2023-07-22T03:40:09;101088.22;;;26.13;100.00
51460;BME280;37534;39.772;2.718;2023-07-22T03:42:53;101096.25;;;26.02;100.00
51460;BME280;37534;39.772;2.718;2023-07-22T03:45:21;101101.22;;;25.95;100.00
51460;BME280;37534;39.772;2.718;2023-07-22T03:47:50;101106.84;;;26.02;100.00
51460;BME280;37534;39.772;2.718;2023-07-22T03:50:16;101101.09;;;25.96;100.00
51460;BME280;37534;39.772;2.718;2023-07-22T03:52:41;101107.78;;;26.01;100.00
51460;BME280;37534;39.772;2.718;2023-07-22T03:55:07;101098.22;;;25.99;100.00
51460;BME280;37534;39.772;2.718;2023-07-22T03:57:33;101092.91;;;25.99;100.00
51460;BME280;37534;39.772;2.718;2023-07-22T03:59:58;101073.88;;;26.06;100.00
51460;BME280;37534;39.772;2.718;2023-07-22T04:02:24;101073.16;;;26.04;100.00
51460;BME280;37534;39.772;2.718;2023-07-22T04:04:51;101077.81;;;25.90;100.00
51460;BME280;37534;39.772;2.718;2023-07-22T04:07:17;101092.94;;;25.88;100.00
51460;BME280;37534;39.772;2.718;2023-07-22T04:09:43;101090.88;;;25.92;100.00
51460;BME280;37534;39.772;2.718;2023-07-22T04:12:10;101069.88;;;25.90;100.00
51460;BME280;37534;39.772;2.718;2023-07-22T04:14:36;101039.13;;;25.89;100.00
51460;BME280;37534;39.772;2.718;2023-07-22T04:17:01;101016.28;;;25.88;100.00
51460;BME280;37534;39.772;2.718;2023-07-22T04:19:29;101014.19;;;25.82;100.00
51460;BME280;37534;39.772;2.718;2023-07-22T04:21:55;101001.78;;;25.73;100.00
51460;BME280;37534;39.772;2.718;2023-07-22T04:24:20;101016.25;;;25.78;100.00
51460;BME280;37534;39.772;2.718;2023-07-22T04:26:46;101031.66;;;25.73;100.00
51460;BME280;37534;39.772;2.718;2023-07-22T04:29:11;101047.66;;;25.72;100.00
51460;BME280;37534;39.772;2.718;2023-07-22T04:31:38;101062.81;;;25.70;100.00
51460;BME280;37534;39.772;2.718;2023-07-22T04:34:03;101072.41;;;25.71;100.00
51460;BME280;37534;39.772;2.718;2023-07-22T04:36:30;101075.75;;;25.73;100.00
51460;BME280;37534;39.772;2.718;2023-07-22T04:38:56;101057.78;;;25.67;100.00
51460;BME280;37534;39.772;2.718;2023-07-22T04:41:21;101071.25;;;25.64;100.00
51460;BME280;37534;39.772;2.718;2023-07-22T04:43:47;101070.97;;;25.67;100.00
51460;BME280;37534;39.772;2.718;2023-07-22T04:46:13;101064.16;;;25.85;100.00
51460;BME280;37534;39.772;2.718;2023-07-22T04:48:38;101061.81;;;25.92;100.00
51460;BME280;37534;39.772;2.718;2023-07-22T04:51:04;101057.19;;;25.84;100.00
51460;BME280;37534;39.772;2.718;2023-07-22T04:53:30;101072.59;;;25.79;100.00
51460;BME280;37534;39.772;2.718;2023-07-22T04:55:55;101078.69;;;25.79;100.00
51460;BME280;37534;39.772;2.718;2023-07-22T04:58:21;101076.25;;;25.67;100.00
51460;BME280;37534;39.772;2.718;2023-07-22T05:00:47;101098.69;;;25.72;100.00
51460;BME280;37534;39.772;2.718;2023-07-22T05:03:14;101095.47;;;25.69;100.00
51460;BME280;37534;39.772;2.718;2023-07-22T05:05:39;101098.25;;;25.67;100.00
51460;BME280;37534;39.772;2.718;2023-07-22T05:08:05;101100.25;;;25.75;100.00
51460;BME280;37534;39.772;2.718;2023-07-22T05:10:32;101093.81;;;25.68;100.00
51460;BME280;37534;39.772;2.718;2023-07-22T05:12:58;101094.63;;;25.68;100.00
51460;BME280;37534;39.772;2.718;2023-07-22T05:15:23;101099.72;;;25.81;100.00
51460;BME280;37534;39.772;2.718;2023-07-22T05:17:49;101082.84;;;25.93;100.00
51460;BME280;37534;39.772;2.718;2023-07-22T05:20:14;101090.84;;;26.03;100.00
51460;BME280;37534;39.772;2.718;2023-07-22T05:22:40;101092.38;;;26.06;100.00
51460;BME280;37534;39.772;2.718;2023-07-22T05:25:06;101105.47;;;26.07;100.00
51460;BME280;37534;39.772;2.718;2023-07-22T05:27:33;101100.50;;;26.14;100.00
51460;BME280;37534;39.772;2.718;2023-07-22T05:29:58;101108.09;;;26.28;100.00
51460;BME280;37534;39.772;2.718;2023-07-22T05:32:24;101112.53;;;26.28;100.00
51460;BME280;37534;39.772;2.718;2023-07-22T05:34:50;101105.94;;;26.22;100.00
51460;BME280;37534;39.772;2.718;2023-07-22T05:37:15;101114.78;;;26.32;100.00
51460;BME280;37534;39.772;2.718;2023-07-22T05:39:41;101115.22;;;26.37;100.00
51460;BME280;37534;39.772;2.718;2023-07-22T05:42:06;101123.72;;;26.41;100.00
51460;BME280;37534;39.772;2.718;2023-07-22T05:44:32;101118.56;;;26.40;100.00
51460;BME280;37534;39.772;2.718;2023-07-22T05:46:58;101131.59;;;26.52;100.00
51460;BME280;37534;39.772;2.718;2023-07-22T05:49:23;101121.66;;;26.45;100.00
51460;BME280;37534;39.772;2.718;2023-07-22T05:51:49;101132.09;;;26.46;100.00
51460;BME280;37534;39.772;2.718;2023-07-22T05:54:14;101136.56;;;26.46;100.00
51460;BME280;37534;39.772;2.718;2023-07-22T05:56:40;101146.34;;;26.55;100.00
51460;BME280;37534;39.772;2.718;2023-07-22T05:59:06;101134.78;;;26.56;100.00
51460;BME280;37534;39.772;2.718;2023-07-22T06:01:32;101146.13;;;26.68;100.00
51460;BME280;37534;39.772;2.718;2023-07-22T06:03:58;101140.00;;;26.67;100.00
51460;BME280;37534;39.772;2.718;2023-07-22T06:06:23;101146.97;;;26.68;100.00
51460;BME280;37534;39.772;2.718;2023-07-22T06:08:49;101143.34;;;26.69;100.00
51460;BME280;37534;39.772;2.718;2023-07-22T06:11:14;101171.81;;;26.87;100.00
51460;BME280;37534;39.772;2.718;2023-07-22T06:13:40;101174.66;;;26.95;100.00
51460;BME280;37534;39.772;2.718;2023-07-22T06:16:06;101192.63;;;27.01;100.00
51460;BME280;37534;39.772;2.718;2023-07-22T06:18:31;101195.28;;;27.01;100.00
51460;BME280;37534;39.772;2.718;2023-07-22T06:20:57;101198.47;;;26.95;100.00
51460;BME280;37534;39.772;2.718;2023-07-22T06:23:22;101200.31;;;27.04;100.00
51460;BME280;37534;39.772;2.718;2023-07-22T06:25:48;101214.81;;;27.20;100.00
51460;BME280;37534;39.772;2.718;2023-07-22T06:28:15;101217.03;;;27.15;100.00
51460;BME280;37534;39.772;2.718;2023-07-22T06:30:40;101218.28;;;27.01;100.00
51460;BME280;37534;39.772;2.718;2023-07-22T06:33:06;101217.84;;;27.05;100.00
51460;BME280;37534;39.772;2.718;2023-07-22T06:35:31;101213.69;;;27.12;100.00
51460;BME280;37534;39.772;2.718;2023-07-22T06:37:57;101211.28;;;27.00;100.00
51460;BME280;37534;39.772;2.718;2023-07-22T06:40:24;101224.56;;;27.09;100.00
51460;BME280;37534;39.772;2.718;2023-07-22T06:42:50;101218.72;;;27.16;100.00
51460;BME280;37534;39.772;2.718;2023-07-22T06:45:16;101221.84;;;27.30;98.41
51460;BME280;37534;39.772;2.718;2023-07-22T06:47:41;101219.91;;;27.33;98.03
51460;BME280;37534;39.772;2.718;2023-07-22T06:50:07;101220.47;;;27.36;98.29
51460;BME280;37534;39.772;2.718;2023-07-22T06:52:33;101211.28;;;27.40;96.21
51460;BME280;37534;39.772;2.718;2023-07-22T06:54:59;101217.09;;;27.34;94.81
51460;BME280;37534;39.772;2.718;2023-07-22T06:57:25;101227.88;;;27.33;95.59
51460;BME280;37534;39.772;2.718;2023-07-22T06:59:53;101213.75;;;27.32;93.35
51460;BME280;37534;39.772;2.718;2023-07-22T07:02:19;101212.38;;;27.28;94.52
51460;BME280;37534;39.772;2.718;2023-07-22T07:04:45;101226.34;;;27.40;93.88
51460;BME280;37534;39.772;2.718;2023-07-22T07:07:12;101232.91;;;27.45;93.84
51460;BME280;37534;39.772;2.718;2023-07-22T07:09:38;101241.16;;;27.52;92.97
51460;BME280;37534;39.772;2.718;2023-07-22T07:12:04;101235.00;;;27.52;92.51
51460;BME280;37534;39.772;2.718;2023-07-22T07:14:29;101237.53;;;27.63;91.99
51460;BME280;37534;39.772;2.718;2023-07-22T07:16:55;101234.19;;;27.61;90.21
51460;BME280;37534;39.772;2.718;2023-07-22T07:19:21;101230.00;;;27.68;89.34
51460;BME280;37534;39.772;2.718;2023-07-22T07:21:46;101244.22;;;27.67;90.45
51460;BME280;37534;39.772;2.718;2023-07-22T07:24:12;101250.22;;;27.88;89.80
51460;BME280;37534;39.772;2.718;2023-07-22T07:26:38;101259.16;;;27.87;86.88
51460;BME280;37534;39.772;2.718;2023-07-22T07:29:03;101253.13;;;27.85;87.13
51460;BME280;37534;39.772;2.718;2023-07-22T07:31:29;101273.84;;;27.92;86.35
51460;BME280;37534;39.772;2.718;2023-07-22T07:33:55;101259.00;;;27.89;86.90
51460;BME280;37534;39.772;2.718;2023-07-22T07:36:21;101274.69;;;28.02;85.73
51460;BME280;37534;39.772;2.718;2023-07-22T07:38:46;101274.38;;;28.15;83.81
51460;BME280;37534;39.772;2.718;2023-07-22T07:41:12;101265.44;;;28.25;83.49
51460;BME280;37534;39.772;2.718;2023-07-22T07:43:39;101271.25;;;28.49;81.63
51460;BME280;37534;39.772;2.718;2023-07-22T07:46:24;101275.84;;;28.66;79.96
51460;BME280;37534;39.772;2.718;2023-07-22T07:48:58;101270.94;;;28.71;79.15
51460;BME280;37534;39.772;2.718;2023-07-22T07:51:29;101289.13;;;29.04;76.76
51460;BME280;37534;39.772;2.718;2023-07-22T07:53:55;101283.81;;;29.04;76.46
51460;BME280;37534;39.772;2.718;2023-07-22T07:56:21;101293.91;;;29.28;74.79
51460;BME280;37534;39.772;2.718;2023-07-22T07:58:49;101272.13;;;29.24;73.38
51460;BME280;37534;39.772;2.718;2023-07-22T08:01:15;101296.13;;;29.32;74.21
51460;BME280;37534;39.772;2.718;2023-07-22T08:03:42;101295.56;;;29.38;73.39
51460;BME280;37534;39.772;2.718;2023-07-22T08:06:09;101286.59;;;29.39;73.45
51460;BME280;37534;39.772;2.718;2023-07-22T08:08:35;101293.25;;;29.44;74.70
51460;BME280;37534;39.772;2.718;2023-07-22T08:13:30;101303.00;;;29.81;73.29
51460;BME280;37534;39.772;2.718;2023-07-22T08:15:59;101287.13;;;29.89;73.81
51460;BME280;37534;39.772;2.718;2023-07-22T08:18:25;101284.38;;;29.81;73.85
51460;BME280;37534;39.772;2.718;2023-07-22T08:20:52;101275.41;;;29.82;72.74
51460;BME280;37534;39.772;2.718;2023-07-22T08:23:19;101289.94;;;29.87;73.98
51460;BME280;37534;39.772;2.718;2023-07-22T08:25:44;101288.56;;;30.01;74.62
51460;BME280;37534;39.772;2.718;2023-07-22T08:28:10;101272.44;;;30.03;71.77
51460;BME280;37534;39.772;2.718;2023-07-22T08:30:35;101283.06;;;30.21;72.96
51460;BME280;37534;39.772;2.718;2023-07-22T08:33:01;101288.75;;;30.26;72.47
51460;BME280;37534;39.772;2.718;2023-07-22T08:35:26;101297.13;;;30.31;71.15
51460;BME280;37534;39.772;2.718;2023-07-22T08:37:52;101293.38;;;30.42;71.41
51460;BME280;37534;39.772;2.718;2023-07-22T08:40:19;101293.19;;;30.61;70.23
51460;BME280;37534;39.772;2.718;2023-07-22T08:42:46;101283.97;;;30.56;70.07
51460;BME280;37534;39.772;2.718;2023-07-22T08:45:13;101285.75;;;30.73;67.90
51460;BME280;37534;39.772;2.718;2023-07-22T08:47:45;101288.25;;;31.01;66.63
51460;BME280;37534;39.772;2.718;2023-07-22T08:50:15;101284.78;;;31.08;66.19
51460;BME280;37534;39.772;2.718;2023-07-22T08:52:43;101282.25;;;30.99;67.09
51460;BME280;37534;39.772;2.718;2023-07-22T08:55:09;101288.25;;;31.09;65.23
51460;BME280;37534;39.772;2.718;2023-07-22T08:57:36;101259.91;;;31.00;65.40
51460;BME280;37534;39.772;2.718;2023-07-22T09:00:02;101267.75;;;31.01;65.27
51460;BME280;37534;39.772;2.718;2023-07-22T09:02:35;101282.66;;;31.20;64.40
51460;BME280;37534;39.772;2.718;2023-07-22T09:05:02;101284.66;;;31.18;65.16
51460;BME280;37534;39.772;2.718;2023-07-22T09:07:28;101263.03;;;31.30;65.41
51460;BME280;37534;39.772;2.718;2023-07-22T09:09:54;101284.38;;;31.38;64.75
51460;BME280;37534;39.772;2.718;2023-07-22T09:12:22;101280.59;;;31.49;64.92
51460;BME280;37534;39.772;2.718;2023-07-22T09:14:49;101293.03;;;31.48;62.69
51460;BME280;37534;39.772;2.718;2023-07-22T09:17:15;101296.63;;;31.65;62.76
51460;BME280;37534;39.772;2.718;2023-07-22T09:19:40;101286.13;;;31.72;60.84
51460;BME280;37534;39.772;2.718;2023-07-22T09:22:07;101282.78;;;31.61;60.90
51460;BME280;37534;39.772;2.718;2023-07-22T09:24:33;101267.75;;;31.60;62.37
51460;BME280;37534;39.772;2.718;2023-07-22T09:26:58;101284.13;;;31.90;62.27
51460;BME280;37534;39.772;2.718;2023-07-22T09:29:36;101312.53;;;32.24;61.01
51460;BME280;37534;39.772;2.718;2023-07-22T09:32:03;101293.13;;;32.38;59.30
51460;BME280;37534;39.772;2.718;2023-07-22T09:34:29;101308.50;;;32.69;58.24
51460;BME280;37534;39.772;2.718;2023-07-22T09:36:58;101306.81;;;32.60;57.16
51460;BME280;37534;39.772;2.718;2023-07-22T09:39:29;101305.19;;;32.34;58.94
51460;BME280;37534;39.772;2.718;2023-07-22T09:41:55;101287.47;;;32.50;58.29
51460;BME280;37534;39.772;2.718;2023-07-22T09:44:22;101297.28;;;32.49;58.81
51460;BME280;37534;39.772;2.718;2023-07-22T09:46:49;101308.81;;;32.66;58.74
51460;BME280;37534;39.772;2.718;2023-07-22T09:49:16;101304.31;;;32.58;57.65
51460;BME280;37534;39.772;2.718;2023-07-22T09:51:43;101319.13;;;32.77;56.90
51460;BME280;37534;39.772;2.718;2023-07-22T09:54:08;101338.78;;;33.01;57.33
51460;BME280;37534;39.772;2.718;2023-07-22T09:56:49;101353.31;;;33.46;55.34
51460;BME280;37534;39.772;2.718;2023-07-22T09:59:18;101340.91;;;33.53;52.65
51460;BME280;37534;39.772;2.718;2023-07-22T10:01:44;101349.53;;;33.64;52.83
51460;BME280;37534;39.772;2.718;2023-07-22T10:04:13;101339.31;;;33.76;52.50
51460;BME280;37534;39.772;2.718;2023-07-22T10:06:42;101337.75;;;33.81;51.42
51460;BME280;37534;39.772;2.718;2023-07-22T10:09:10;101375.53;;;34.09;50.64
51460;BME280;37534;39.772;2.718;2023-07-22T10:11:37;101354.38;;;34.15;50.14
51460;BME280;37534;39.772;2.718;2023-07-22T10:14:05;101371.69;;;34.50;49.63
51460;BME280;37534;39.772;2.718;2023-07-22T10:16:31;101363.50;;;34.66;50.22
51460;BME280;37534;39.772;2.718;2023-07-22T10:18:59;101369.16;;;35.01;50.89
51460;BME280;37534;39.772;2.718;2023-07-22T10:21:26;101346.69;;;35.32;49.46
51460;BME280;37534;39.772;2.718;2023-07-22T10:23:54;101343.28;;;35.60;49.62
51460;BME280;37534;39.772;2.718;2023-07-22T10:26:20;101339.31;;;35.04;50.14
51460;BME280;37534;39.772;2.718;2023-07-22T10:28:47;101332.94;;;35.06;49.77
51460;BME280;37534;39.772;2.718;2023-07-22T10:31:13;101312.50;;;34.75;49.72
51460;BME280;37534;39.772;2.718;2023-07-22T10:33:39;101311.00;;;34.57;49.90
51460;BME280;37534;39.772;2.718;2023-07-22T10:36:07;101301.94;;;34.43;51.48
51460;BME280;37534;39.772;2.718;2023-07-22T10:38:35;101291.06;;;34.75;50.34
51460;BME280;37534;39.772;2.718;2023-07-22T10:41:04;101299.72;;;35.07;48.28
51460;BME280;37534;39.772;2.718;2023-07-22T10:43:36;101329.75;;;35.32;49.23
51460;BME280;37534;39.772;2.718;2023-07-22T10:46:12;101340.03;;;35.28;49.57
51460;BME280;37534;39.772;2.718;2023-07-22T10:48:42;101347.16;;;35.21;48.15
51460;BME280;37534;39.772;2.718;2023-07-22T10:51:13;101363.03;;;34.63;51.00
51460;BME280;37534;39.772;2.718;2023-07-22T10:53:44;101396.41;;;34.14;53.42
51460;BME280;37534;39.772;2.718;2023-07-22T10:56:22;101392.75;;;33.52;55.63
51460;BME280;37534;39.772;2.718;2023-07-22T11:12:07;101432.44;;;34.35;55.37
51460;BME280;37534;39.772;2.718;2023-07-22T11:15:03;101429.16;;;34.47;53.81
51460;BME280;37534;39.772;2.718;2023-07-22T11:17:30;101416.06;;;34.67;52.52
51460;BME280;37534;39.772;2.718;2023-07-22T11:20:01;101393.47;;;34.85;51.87
51460;BME280;37534;39.772;2.718;2023-07-22T11:22:27;101360.03;;;35.11;50.17
51460;BME280;37534;39.772;2.718;2023-07-22T11:24:56;101352.25;;;35.31;49.25
51460;BME280;37534;39.772;2.718;2023-07-22T11:27:25;101368.53;;;35.29;48.40
51460;BME280;37534;39.772;2.718;2023-07-22T11:29:51;101354.78;;;35.54;48.16
51460;BME280;37534;39.772;2.718;2023-07-22T11:32:18;101342.34;;;35.31;47.81
51460;BME280;37534;39.772;2.718;2023-07-22T11:34:44;101320.78;;;35.39;48.34
51460;BME280;37534;39.772;2.718;2023-07-22T11:37:10;101316.44;;;35.60;47.70
51460;BME280;37534;39.772;2.718;2023-07-22T11:39:36;101317.97;;;35.84;48.12
51460;BME280;37534;39.772;2.718;2023-07-22T11:42:03;101300.88;;;35.92;45.25
51460;BME280;37534;39.772;2.718;2023-07-22T11:44:29;101276.63;;;35.78;46.58
51460;BME280;37534;39.772;2.718;2023-07-22T11:49:27;101262.91;;;35.95;47.17
51460;BME280;37534;39.772;2.718;2023-07-22T11:51:54;101285.81;;;35.91;43.50
51460;BME280;37534;39.772;2.718;2023-07-22T11:54:21;101269.81;;;35.83;43.21
51460;BME280;37534;39.772;2.718;2023-07-22T11:56:47;101254.97;;;35.22;42.83
51460;BME280;37534;39.772;2.718;2023-07-22T11:59:13;101274.75;;;35.21;43.93
51460;BME280;37534;39.772;2.718;2023-07-22T12:01:38;101277.34;;;35.29;45.34
51460;BME280;37534;39.772;2.718;2023-07-22T12:04:11;101254.78;;;35.09;42.78
51460;BME280;37534;39.772;2.718;2023-07-22T12:06:37;101267.44;;;35.30;44.75
51460;BME280;37534;39.772;2.718;2023-07-22T12:09:02;101278.50;;;35.63;44.07
51460;BME280;37534;39.772;2.718;2023-07-22T12:11:32;101279.66;;;35.97;46.37
51460;BME280;37534;39.772;2.718;2023-07-22T12:14:12;101270.03;;;36.09;45.85
51460;BME280;37534;39.772;2.718;2023-07-22T12:16:39;101267.34;;;36.09;44.08
51460;BME280;37534;39.772;2.718;2023-07-22T12:19:06;101270.56;;;36.20;45.21
51460;BME280;37534;39.772;2.718;2023-07-22T12:21:32;101265.53;;;36.16;44.74
51460;BME280;37534;39.772;2.718;2023-07-22T12:23:59;101265.03;;;36.28;44.80
51460;BME280;37534;39.772;2.718;2023-07-22T12:26:24;101265.19;;;36.20;44.40
51460;BME280;37534;39.772;2.718;2023-07-22T12:28:50;101263.25;;;36.13;44.34
51460;BME280;37534;39.772;2.718;2023-07-22T12:31:16;101278.22;;;36.01;44.82
51460;BME280;37534;39.772;2.718;2023-07-22T12:33:42;101278.66;;;35.76;45.94
51460;BME280;37534;39.772;2.718;2023-07-22T12:36:08;101296.22;;;35.79;45.22
51460;BME280;37534;39.772;2.718;2023-07-22T12:38:33;101294.09;;;35.53;45.74
51460;BME280;37534;39.772;2.718;2023-07-22T12:41:00;101301.88;;;35.48;45.51
51460;BME280;37534;39.772;2.718;2023-07-22T12:43:26;101294.78;;;35.40;45.49
51460;BME280;37534;39.772;2.718;2023-07-22T12:45:51;101286.34;;;35.43;45.87
51460;BME280;37534;39.772;2.718;2023-07-22T12:48:17;101301.22;;;35.46;46.18
51460;BME280;37534;39.772;2.718;2023-07-22T12:50:43;101311.19;;;35.30;45.76
51460;BME280;37534;39.772;2.718;2023-07-22T12:53:09;101312.47;;;35.34;46.30
51460;BME280;37534;39.772;2.718;2023-07-22T12:55:34;101294.50;;;35.35;45.59
51460;BME280;37534;39.772;2.718;2023-07-22T12:58:00;101271.41;;;35.19;45.53
51460;BME280;37534;39.772;2.718;2023-07-22T13:00:27;101268.47;;;35.14;45.86